Time;durP1;ratioP1;P1;durP2;ratioP2;P2;SDS_P1;SDS_P2;PMS_P1;PMS_P2;Temp;Humidity;BMP_temperature;BMP_pressure;BME280_temperature;BME280_humidity;BME280_pressure;Samples;Min_cycle;Max_cycle;Signal;HPM_P1;HPM_P2
2020/12/15 00:01:22;;;;;;;;;;;;;;;17.28;74.69;101502.03;5035035;28;1774;-52
2020/12/15 00:03:49;;;;;;;;;;;;;;;17.26;74.30;101504.78;5023601;28;1742;-52
2020/12/15 00:06:16;;;;;;;;;;;;;;;17.21;74.25;101492.72;5053299;28;1318;-52
2020/12/15 00:08:44;;;;;;;;;;;;;;;17.20;74.10;101507.03;5053211;28;1406;-52
2020/12/15 00:11:20;;;;;;;;;;;;;;;17.21;74.33;101509.63;5052426;28;1886;-52
2020/12/15 00:13:45;;;;;;;;;;;;;;;17.22;74.88;101515.81;5044712;28;1729;-52
2020/12/15 00:16:16;;;;;;;;;;;;;;;17.19;74.03;101510.66;5054127;28;1015;-52
2020/12/15 00:18:42;;;;;;;;;;;;;;;17.16;74.06;101506.41;5036563;28;1611;-52
2020/12/15 00:21:08;;;;;;;;;;;;;;;17.14;73.98;101513.66;5049070;28;1773;-52
2020/12/15 00:23:36;;;;;;;;;;;;;;;17.18;74.69;101530.34;5054732;28;801;-52
2020/12/15 00:26:02;;;;;;;;;;;;;;;17.17;74.94;101540.19;5042060;28;1849;-52
2020/12/15 00:28:27;;;;;;;;;;;;;;;17.14;75.01;101526.19;5054057;28;1819;-52
2020/12/15 00:30:53;;;;;;;;;;;;;;;17.14;73.82;101523.50;5048744;28;1973;-52
2020/12/15 00:33:19;;;;;;;;;;;;;;;17.10;74.40;101517.50;5044971;28;1846;-52
2020/12/15 00:35:45;;;;;;;;;;;;;;;17.07;74.82;101521.25;5054269;28;824;-52
2020/12/15 00:38:11;;;;;;;;;;;;;;;17.07;75.19;101518.59;5054147;28;784;-52
2020/12/15 00:40:36;;;;;;;;;;;;;;;17.06;74.53;101522.19;5054014;28;853;-52
2020/12/15 00:43:03;;;;;;;;;;;;;;;17.06;74.08;101521.34;5038796;28;1726;-52
2020/12/15 00:45:28;;;;;;;;;;;;;;;17.03;74.10;101517.06;5037969;28;1842;-51
2020/12/15 00:47:53;;;;;;;;;;;;;;;17.02;75.21;101515.34;5047386;28;1789;-52
2020/12/15 00:50:18;;;;;;;;;;;;;;;17.00;74.61;101506.59;5049632;28;1833;-52
2020/12/15 00:52:45;;;;;;;;;;;;;;;16.99;74.20;101512.91;5054264;28;1894;-52
2020/12/15 00:55:11;;;;;;;;;;;;;;;17.01;74.67;101519.00;5052978;28;1729;-52
2020/12/15 00:57:38;;;;;;;;;;;;;;;16.98;75.13;101503.16;5053552;28;931;-52
2020/12/15 02:03:14;;;;;;;;;;;;;;;16.79;74.24;101508.88;5036525;28;1600;-52
2020/12/15 02:05:41;;;;;;;;;;;;;;;16.81;74.76;101516.75;5050084;28;1802;-52
2020/12/15 02:08:07;;;;;;;;;;;;;;;16.81;75.45;101520.34;5057033;28;864;-52
2020/12/15 02:10:33;;;;;;;;;;;;;;;16.80;74.91;101517.75;5056477;28;1829;-52
2020/12/15 02:12:58;;;;;;;;;;;;;;;16.81;75.14;101508.75;5047313;28;1991;-52
2020/12/15 02:15:25;;;;;;;;;;;;;;;16.79;74.16;101502.66;5035750;28;1732;-52
2020/12/15 02:17:50;;;;;;;;;;;;;;;16.78;75.32;101504.47;5049711;28;1908;-52
2020/12/15 02:20:15;;;;;;;;;;;;;;;16.74;74.64;101499.47;5054650;28;1818;-52
2020/12/15 02:22:40;;;;;;;;;;;;;;;16.74;75.14;101518.16;5040654;28;1671;-53
2020/12/15 02:25:08;;;;;;;;;;;;;;;16.67;74.21;101505.22;5053533;28;1969;-52
2020/12/15 02:27:37;;;;;;;;;;;;;;;16.68;74.20;101512.25;5053825;28;1758;-52
2020/12/15 02:30:05;;;;;;;;;;;;;;;16.70;74.80;101513.00;5038117;28;1828;-52
2020/12/15 02:32:42;;;;;;;;;;;;;;;16.75;74.84;101525.19;5035259;28;1902;-52
2020/12/15 02:35:07;;;;;;;;;;;;;;;16.72;73.77;101512.06;5036928;28;1867;-52
2020/12/15 02:37:37;;;;;;;;;;;;;;;16.70;74.01;101510.34;5036528;28;880;-52
2020/12/15 02:40:05;;;;;;;;;;;;;;;16.70;74.46;101515.66;5034993;28;893;-52
2020/12/15 02:42:30;;;;;;;;;;;;;;;16.73;74.13;101516.41;5046987;28;1843;-52
2020/12/15 02:44:57;;;;;;;;;;;;;;;16.69;73.79;101508.63;5050099;28;1856;-52
2020/12/15 02:47:31;;;;;;;;;;;;;;;16.70;73.89;101504.13;5035236;28;1732;-52
2020/12/15 02:49:57;;;;;;;;;;;;;;;16.65;74.63;101504.47;5040398;28;1779;-52
2020/12/15 02:52:23;;;;;;;;;;;;;;;16.69;74.46;101521.09;5055102;28;1889;-52
2020/12/15 02:54:49;;;;;;;;;;;;;;;16.63;73.72;101511.72;5055815;28;828;-52
2020/12/15 02:57:15;;;;;;;;;;;;;;;16.64;73.71;101510.75;5054774;28;1819;-51
2020/12/15 02:59:41;;;;;;;;;;;;;;;16.63;73.56;101517.06;5042543;28;1727;-52
2020/12/15 03:02:08;;;;;;;;;;;;;;;16.65;73.92;101520.47;5039093;28;1844;-52
2020/12/15 03:04:33;;;;;;;;;;;;;;;16.64;73.90;101526.75;5053754;28;1739;-52
2020/12/15 03:07:01;;;;;;;;;;;;;;;16.64;74.06;101521.41;5042797;28;1790;-52
2020/12/15 03:09:26;;;;;;;;;;;;;;;16.64;74.22;101521.41;5035946;28;845;-52
2020/12/15 03:11:55;;;;;;;;;;;;;;;16.64;74.82;101521.41;5035813;28;1967;-52
2020/12/15 03:14:22;;;;;;;;;;;;;;;16.64;73.68;101520.56;5038736;28;1940;-52
2020/12/15 03:16:48;;;;;;;;;;;;;;;16.62;74.28;101511.81;5041937;28;1874;-52
2020/12/15 03:19:14;;;;;;;;;;;;;;;16.63;73.35;101503.69;5054495;28;1848;-52
2020/12/15 03:21:40;;;;;;;;;;;;;;;16.64;73.17;101508.06;5040213;28;1830;-52
2020/12/15 03:24:09;;;;;;;;;;;;;;;16.59;73.58;101512.88;5035304;28;888;-52
2020/12/15 03:26:34;;;;;;;;;;;;;;;16.62;73.42;101517.16;5045492;28;1807;-52
2020/12/15 03:28:59;;;;;;;;;;;;;;;16.62;73.35;101523.34;5054658;28;1799;-52
2020/12/15 03:31:25;;;;;;;;;;;;;;;16.59;73.46;101522.69;5055640;28;1898;-52
2020/12/15 03:33:52;;;;;;;;;;;;;;;16.56;74.56;101512.22;5048545;28;1962;-52
2020/12/15 03:36:17;;;;;;;;;;;;;;;16.58;74.36;101531.66;5053984;28;2485;-52
2020/12/15 03:38:44;;;;;;;;;;;;;;;16.55;73.61;101543.38;5054080;28;1157;-52
2020/12/15 03:41:10;;;;;;;;;;;;;;;16.55;74.77;101546.06;5053764;28;1862;-52
2020/12/15 03:43:49;;;;;;;;;;;;;;;16.56;73.73;101538.91;5046101;28;1694;-52
2020/12/15 03:46:16;;;;;;;;;;;;;;;16.56;73.60;101544.25;5053511;28;1925;-52
2020/12/15 03:48:41;;;;;;;;;;;;;;;16.54;74.51;101551.50;5046454;28;1887;-52
2020/12/15 03:51:07;;;;;;;;;;;;;;;16.57;73.46;101544.13;5038887;28;1889;-52
2020/12/15 03:53:33;;;;;;;;;;;;;;;16.55;74.39;101546.06;5050436;28;1866;-52
2020/12/15 03:55:58;;;;;;;;;;;;;;;16.59;73.60;101552.06;5055137;28;1770;-52
2020/12/15 03:58:24;;;;;;;;;;;;;;;16.56;73.46;101549.59;5054695;28;816;-51
2020/12/15 04:00:49;;;;;;;;;;;;;;;16.54;74.52;101556.84;5048945;28;1985;-52
2020/12/15 04:03:16;;;;;;;;;;;;;;;16.55;74.43;101558.56;5034277;28;1173;-52
2020/12/15 04:05:42;;;;;;;;;;;;;;;16.52;73.14;101564.97;5034994;28;1707;-52
2020/12/15 04:08:09;;;;;;;;;;;;;;;16.50;74.63;101564.19;5045148;28;1933;-52
2020/12/15 04:10:34;;;;;;;;;;;;;;;16.52;73.84;101558.78;5051528;28;1791;-52
2020/12/15 04:13:00;;;;;;;;;;;;;;;16.52;73.86;101564.09;5042501;28;1906;-52
2020/12/15 04:15:27;;;;;;;;;;;;;;;16.49;73.41;101578.50;5040979;28;1856;-52
2020/12/15 04:17:55;;;;;;;;;;;;;;;16.52;73.38;101574.78;5034215;28;1755;-52
2020/12/15 04:20:22;;;;;;;;;;;;;;;16.49;74.42;101575.81;5046857;28;1874;-52
2020/12/15 04:22:49;;;;;;;;;;;;;;;16.49;74.52;101575.81;5054196;28;947;-51
2020/12/15 04:25:14;;;;;;;;;;;;;;;16.48;74.03;101579.47;5041422;28;1775;-52
2020/12/15 04:27:41;;;;;;;;;;;;;;;16.48;73.90;101582.13;5054167;28;1881;-52
2020/12/15 04:30:07;;;;;;;;;;;;;;;16.53;74.42;101592.50;5054207;28;1730;-52
2020/12/15 04:32:34;;;;;;;;;;;;;;;16.47;73.54;101583.06;5054196;28;1905;-52
2020/12/15 04:34:59;;;;;;;;;;;;;;;16.48;73.11;101596.34;5054164;28;1922;-51
2020/12/15 04:37:25;;;;;;;;;;;;;;;16.46;74.50;101586.72;5045321;28;1873;-52
2020/12/15 04:39:50;;;;;;;;;;;;;;;16.47;73.50;101599.09;5034690;28;1903;-52
2020/12/15 04:42:18;;;;;;;;;;;;;;;16.49;74.36;101597.19;5034497;28;1869;-52
2020/12/15 04:44:43;;;;;;;;;;;;;;;16.47;73.66;101599.09;5042625;28;1798;-52
2020/12/15 04:47:15;;;;;;;;;;;;;;;16.43;73.05;101602.91;5052817;28;1386;-52
2020/12/15 04:49:46;;;;;;;;;;;;;;;16.45;73.77;101606.34;5053942;28;1037;-52
2020/12/15 04:52:13;;;;;;;;;;;;;;;16.43;73.63;101605.59;5044705;28;1960;-52
2020/12/15 04:54:43;;;;;;;;;;;;;;;16.49;74.50;101614.06;5042299;28;1576;-53
2020/12/15 04:57:13;;;;;;;;;;;;;;;16.51;74.67;101605.94;5043445;28;1388;-53
2020/12/15 04:59:41;;;;;;;;;;;;;;;16.48;75.24;101606.16;5044118;28;1846;-52
2020/12/15 05:02:07;;;;;;;;;;;;;;;16.52;73.97;101618.34;5037862;28;1848;-52
2020/12/15 05:04:38;;;;;;;;;;;;;;;16.54;74.25;101616.44;5043995;28;1876;-52
2020/12/15 05:07:04;;;;;;;;;;;;;;;16.49;73.92;101619.41;5034858;28;1884;-53
2020/12/15 05:09:31;;;;;;;;;;;;;;;16.46;74.93;101621.41;5043532;28;1746;-52
2020/12/15 05:11:57;;;;;;;;;;;;;;;16.48;74.92;101623.03;5041063;28;1922;-51
2020/12/15 05:14:23;;;;;;;;;;;;;;;16.49;74.24;101623.88;5017631;28;1767;-52
2020/12/15 05:16:51;;;;;;;;;;;;;;;16.47;74.95;101633.81;4689534;28;10000402;-53
2020/12/15 05:19:17;;;;;;;;;;;;;;;16.44;74.41;101634.84;5049500;28;1728;-53
2020/12/15 05:22:15;;;;;;;;;;;;;;;16.45;74.96;101633.91;5053380;28;1764;-53
2020/12/15 05:24:45;;;;;;;;;;;;;;;16.40;75.29;101625.34;5047332;28;2120;-53
2020/12/15 05:27:17;;;;;;;;;;;;;;;16.38;74.35;101623.72;5050614;28;1491;-53
2020/12/15 05:29:43;;;;;;;;;;;;;;;16.44;74.03;101634.84;5057189;28;914;-53
2020/12/15 05:32:09;;;;;;;;;;;;;;;16.40;74.51;101629.81;5055261;28;1960;-52
2020/12/15 05:34:42;;;;;;;;;;;;;;;16.42;73.97;101635.91;5056099;28;1639;-52
2020/12/15 05:37:09;;;;;;;;;;;;;;;16.38;74.53;101631.72;5055414;28;1743;-51
2020/12/15 05:39:35;;;;;;;;;;;;;;;16.40;73.91;101635.16;5057555;28;856;-52
2020/12/15 05:42:05;;;;;;;;;;;;;;;16.39;73.76;101639.63;5057262;28;868;-52
2020/12/15 05:44:31;;;;;;;;;;;;;;;16.41;73.44;101643.09;5057507;28;869;-52
2020/12/15 05:47:05;;;;;;;;;;;;;;;16.39;73.70;101647.63;5057428;28;828;-52
2020/12/15 05:49:40;;;;;;;;;;;;;;;16.34;74.82;101651.56;5057227;28;855;-52
2020/12/15 05:52:09;;;;;;;;;;;;;;;16.36;73.87;101658.50;5038439;28;1950;-52
2020/12/15 05:54:35;;;;;;;;;;;;;;;16.37;73.80;101662.88;5048988;28;1735;-52
2020/12/15 05:57:03;;;;;;;;;;;;;;;16.35;74.44;101669.28;5042673;28;1870;-52
2020/12/15 05:59:29;;;;;;;;;;;;;;;16.33;73.99;101666.69;5037217;28;824;-51
2020/12/15 06:02:16;;;;;;;;;;;;;;;16.32;73.81;101672.16;5037050;28;1411;-52
2020/12/15 06:04:41;;;;;;;;;;;;;;;16.33;74.19;101684.53;5048751;28;2139;-52
2020/12/15 06:07:07;;;;;;;;;;;;;;;16.33;74.46;101681.88;5057209;28;886;-52
2020/12/15 06:09:34;;;;;;;;;;;;;;;16.29;73.32;101681.19;5056749;28;785;-52
2020/12/15 06:12:01;;;;;;;;;;;;;;;16.26;73.27;101676.91;5040508;28;1914;-52
2020/12/15 06:14:28;;;;;;;;;;;;;;;16.30;73.47;101696.28;5036982;28;843;-52
2020/12/15 06:16:53;;;;;;;;;;;;;;;16.35;74.21;101703.97;5051516;28;1803;-53
2020/12/15 06:19:21;;;;;;;;;;;;;;;16.32;74.43;101697.03;5055262;28;1682;-52
2020/12/15 06:21:47;;;;;;;;;;;;;;;16.30;74.10;101701.59;5055192;28;1878;-52
2020/12/15 06:24:22;;;;;;;;;;;;;;;16.32;73.74;101702.38;5035647;28;1530;-53
2020/12/15 06:26:53;;;;;;;;;;;;;;;16.31;73.67;101703.31;5050092;28;1863;-53
2020/12/15 06:29:26;;;;;;;;;;;;;;;16.32;72.93;101725.53;5055097;28;1414;-52
2020/12/15 06:31:51;;;;;;;;;;;;;;;16.30;73.25;101725.63;5039472;28;1898;-52
2020/12/15 06:34:24;;;;;;;;;;;;;;;16.28;73.09;101717.72;5036743;28;1856;-53
2020/12/15 06:36:50;;;;;;;;;;;;;;;16.27;73.20;101720.47;5041127;28;1921;-52
2020/12/15 06:39:15;;;;;;;;;;;;;;;16.25;73.47;101712.56;4705322;28;9999835;-53
2020/12/15 06:41:41;;;;;;;;;;;;;;;16.26;73.35;101727.63;5053549;28;3208;-52
2020/12/15 06:44:06;;;;;;;;;;;;;;;16.32;74.08;101728.22;5044349;28;1503;-53
2020/12/15 06:46:32;;;;;;;;;;;;;;;16.39;73.99;101726.88;5042792;28;1555;-53
2020/12/15 06:48:59;;;;;;;;;;;;;;;16.37;74.07;101726.09;5047468;28;1359;-53
2020/12/15 06:51:30;;;;;;;;;;;;;;;16.44;74.58;101744.31;5044512;28;2290;-53
2020/12/15 06:54:00;;;;;;;;;;;;;;;16.39;73.67;101740.22;5044269;28;1651;-53
2020/12/15 06:56:29;;;;;;;;;;;;;;;16.33;76.52;101727.25;5026394;28;2676;-53
2020/12/15 06:58:59;;;;;;;;;;;;;;;16.35;75.33;101738.69;5045587;28;1357;-53
2020/12/15 07:01:25;;;;;;;;;;;;;;;16.33;75.49;101735.25;5046236;28;1277;-54
2020/12/15 07:03:55;;;;;;;;;;;;;;;16.35;75.06;101746.69;5044959;28;1436;-53
2020/12/15 07:06:22;;;;;;;;;;;;;;;16.35;76.59;101728.84;5043411;28;1273;-54
2020/12/15 07:09:17;;;;;;;;;;;;;;;16.41;76.90;101741.84;5044986;28;1281;-53
2020/12/15 07:11:43;;;;;;;;;;;;;;;16.36;76.69;101743.94;5046008;28;1980;-53
2020/12/15 07:14:09;;;;;;;;;;;;;;;16.41;76.83;101738.31;5044204;28;1261;-51
2020/12/15 07:16:35;;;;;;;;;;;;;;;16.48;76.74;101745.84;5037507;28;1415;-51
2020/12/15 07:19:01;;;;;;;;;;;;;;;16.52;76.44;101746.50;5042649;28;1919;-51
2020/12/15 07:21:31;;;;;;;;;;;;;;;16.32;77.37;101749.56;5055894;28;1050;-51
2020/12/15 07:24:00;;;;;;;;;;;;;;;16.30;75.07;101737.16;5055453;28;1856;-50
2020/12/15 07:26:25;;;;;;;;;;;;;;;16.28;74.21;101739.06;5053972;28;868;-52
2020/12/15 07:28:51;;;;;;;;;;;;;;;16.30;74.94;101747.84;5054916;28;857;-51
2020/12/15 07:31:27;;;;;;;;;;;;;;;16.29;74.53;101751.47;5055159;28;1951;-50
2020/12/15 07:34:11;;;;;;;;;;;;;;;16.30;74.23;101755.84;5055466;28;848;-51
2020/12/15 07:36:46;;;;;;;;;;;;;;;16.29;75.31;101746.13;5056289;28;777;-51
2020/12/15 07:39:12;;;;;;;;;;;;;;;16.28;74.74;101760.41;5055322;28;949;-51
2020/12/15 07:41:37;;;;;;;;;;;;;;;16.35;75.19;101765.38;5055264;28;820;-50
2020/12/15 07:44:14;;;;;;;;;;;;;;;16.30;74.28;101758.50;5055309;28;800;-51
2020/12/15 07:46:46;;;;;;;;;;;;;;;16.28;75.53;101757.75;5055214;28;797;-51
2020/12/15 07:49:12;;;;;;;;;;;;;;;16.27;75.35;101752.50;5055198;28;777;-50
2020/12/15 07:51:38;;;;;;;;;;;;;;;16.26;74.89;101754.31;5053965;28;1886;-51
2020/12/15 07:54:03;;;;;;;;;;;;;;;16.29;74.81;101750.59;5054874;28;883;-51
2020/12/15 07:56:29;;;;;;;;;;;;;;;16.30;74.14;101757.66;5055050;28;781;-52
2020/12/15 07:58:55;;;;;;;;;;;;;;;16.26;75.14;101746.31;5054977;28;1077;-51
2020/12/15 08:01:24;;;;;;;;;;;;;;;16.25;74.88;101749.94;5054706;28;1001;-50
2020/12/15 08:04:01;;;;;;;;;;;;;;;16.27;74.82;101748.03;5054868;28;852;-51
2020/12/15 08:06:29;;;;;;;;;;;;;;;16.28;75.18;101749.75;5054456;28;923;-51
2020/12/15 08:08:54;;;;;;;;;;;;;;;16.30;74.80;101769.19;5055105;28;769;-50
2020/12/15 08:11:19;;;;;;;;;;;;;;;16.28;74.45;101756.91;5054528;28;1963;-51
2020/12/15 08:13:48;;;;;;;;;;;;;;;16.27;74.41;101753.38;5054362;28;852;-51
2020/12/15 08:16:16;;;;;;;;;;;;;;;16.28;74.96;101767.56;5054327;28;1131;-50
2020/12/15 08:18:42;;;;;;;;;;;;;;;16.28;73.86;101775.56;5054300;28;844;-50
2020/12/15 08:21:12;;;;;;;;;;;;;;;16.26;74.58;101773.00;5054844;28;857;-51
2020/12/15 08:23:40;;;;;;;;;;;;;;;16.24;74.79;101764.22;5054513;28;816;-51
2020/12/15 08:26:05;;;;;;;;;;;;;;;16.21;75.00;101776.88;5054490;28;856;-52
2020/12/15 08:28:30;;;;;;;;;;;;;;;16.20;73.83;101781.38;5054409;28;827;-51
2020/12/15 08:30:56;;;;;;;;;;;;;;;16.21;74.55;101774.22;5054014;28;892;-50
2020/12/15 08:33:25;;;;;;;;;;;;;;;16.21;74.58;101782.22;5054029;28;797;-50
2020/12/15 08:35:50;;;;;;;;;;;;;;;16.21;74.81;101767.06;5054300;28;872;-51
2020/12/15 08:38:16;;;;;;;;;;;;;;;16.19;73.90;101758.28;5054235;28;793;-51
2020/12/15 08:40:43;;;;;;;;;;;;;;;16.22;74.32;101767.94;5054251;28;849;-51
2020/12/15 08:43:08;;;;;;;;;;;;;;;16.20;74.84;101775.19;5053984;28;860;-51
2020/12/15 08:45:34;;;;;;;;;;;;;;;16.18;74.70;101769.94;5053879;28;841;-49
2020/12/15 08:47:59;;;;;;;;;;;;;;;16.17;74.36;101762.88;5053753;28;875;-50
2020/12/15 08:50:28;;;;;;;;;;;;;;;16.20;74.59;101754.69;5053694;28;873;-50
2020/12/15 08:53:06;;;;;;;;;;;;;;;16.20;73.26;101762.69;5053662;28;1947;-50
2020/12/15 08:55:33;;;;;;;;;;;;;;;16.18;74.44;101753.94;5053949;28;827;-50
2020/12/15 08:58:02;;;;;;;;;;;;;;;16.19;73.50;101760.97;5053949;28;785;-50
2020/12/15 09:00:28;;;;;;;;;;;;;;;16.23;74.23;101767.84;5053644;28;1714;-50
2020/12/15 09:03:03;;;;;;;;;;;;;;;16.24;74.43;101758.03;5053072;28;1176;-51
2020/12/15 09:05:28;;;;;;;;;;;;;;;16.23;73.37;101743.81;5053810;28;773;-51
2020/12/15 09:07:53;;;;;;;;;;;;;;;16.23;73.27;101751.81;5053809;28;901;-50
2020/12/15 09:10:18;;;;;;;;;;;;;;;16.22;73.23;101758.13;5053781;28;813;-50
2020/12/15 09:12:47;;;;;;;;;;;;;;;16.24;73.60;101744.69;5053337;28;1913;-50
2020/12/15 09:15:12;;;;;;;;;;;;;;;16.21;73.10;101742.19;5053617;28;1013;-50
2020/12/15 09:17:38;;;;;;;;;;;;;;;16.22;74.13;101744.78;5053658;28;801;-50
2020/12/15 09:20:04;;;;;;;;;;;;;;;16.21;74.17;101751.06;5053612;28;952;-50
2020/12/15 09:22:30;;;;;;;;;;;;;;;16.19;73.08;101744.94;5053634;28;773;-50
2020/12/15 09:25:01;;;;;;;;;;;;;;;16.21;74.21;101736.84;5053642;28;1126;-50
2020/12/15 09:27:27;;;;;;;;;;;;;;;16.22;73.19;101755.44;5053346;28;896;-50
2020/12/15 09:29:53;;;;;;;;;;;;;;;16.18;74.17;101735.25;5053593;28;813;-50
2020/12/15 09:32:18;;;;;;;;;;;;;;;16.19;73.69;101750.28;5053507;28;1906;-50
2020/12/15 09:34:44;;;;;;;;;;;;;;;16.23;73.94;101737.63;5053603;28;844;-50
2020/12/15 09:37:10;;;;;;;;;;;;;;;16.17;74.10;101730.00;5053260;28;864;-50
2020/12/15 09:39:35;;;;;;;;;;;;;;;16.15;74.08;101740.75;5053257;28;892;-50
2020/12/15 09:42:02;;;;;;;;;;;;;;;16.15;74.17;101758.59;5053179;28;880;-50
2020/12/15 09:44:27;;;;;;;;;;;;;;;16.13;73.86;101753.31;5053291;28;899;-50
2020/12/15 09:46:53;;;;;;;;;;;;;;;16.14;74.05;101749.72;5053148;28;872;-50
2020/12/15 09:49:18;;;;;;;;;;;;;;;16.14;73.71;101754.22;5053764;28;800;-50
2020/12/15 09:51:43;;;;;;;;;;;;;;;16.16;74.01;101769.16;5053360;28;1886;-51
2020/12/15 09:54:09;;;;;;;;;;;;;;;16.20;74.11;101762.69;5053339;28;879;-50
2020/12/15 09:56:34;;;;;;;;;;;;;;;16.14;74.13;101743.53;5053353;28;845;-50
2020/12/15 09:58:59;;;;;;;;;;;;;;;16.14;73.22;101757.72;5053036;28;820;-51
2020/12/15 10:01:25;;;;;;;;;;;;;;;16.13;72.97;101752.47;5052830;28;1068;-51
2020/12/15 10:03:50;;;;;;;;;;;;;;;16.17;73.71;101744.19;5053301;28;897;-50
2020/12/15 10:06:16;;;;;;;;;;;;;;;16.21;73.44;101751.06;5053192;28;871;-50
2020/12/15 10:08:41;;;;;;;;;;;;;;;16.20;74.23;101756.50;5052917;28;915;-50
2020/12/15 10:11:06;;;;;;;;;;;;;;;16.24;73.78;101748.22;5052791;28;1965;-50
2020/12/15 10:13:32;;;;;;;;;;;;;;;16.28;73.46;101744.41;5052857;28;867;-51
2020/12/15 10:15:57;;;;;;;;;;;;;;;16.26;74.15;101740.97;5055897;28;855;-50
2020/12/15 10:18:22;;;;;;;;;;;;;;;16.24;73.99;101753.56;5056827;28;801;-51
2020/12/15 10:20:48;;;;;;;;;;;;;;;16.22;73.50;101746.59;5056531;28;928;-51
2020/12/15 10:23:14;;;;;;;;;;;;;;;16.23;73.85;101745.63;5056556;28;908;-51
2020/12/15 10:25:40;;;;;;;;;;;;;;;16.20;73.71;101744.00;5056745;28;781;-51
2020/12/15 10:28:05;;;;;;;;;;;;;;;16.25;73.78;101749.94;5056420;28;851;-51
2020/12/15 10:30:30;;;;;;;;;;;;;;;16.28;72.06;101755.06;5056595;28;833;-52
2020/12/15 10:32:56;;;;;;;;;;;;;;;16.59;73.18;101741.63;5056568;28;1969;-51
2020/12/15 10:35:21;;;;;;;;;;;;;;;16.95;72.81;101749.19;5056520;28;856;-51
2020/12/15 10:37:46;;;;;;;;;;;;;;;17.09;72.52;101745.63;5056536;28;879;-54
2020/12/15 10:40:12;;;;;;;;;;;;;;;17.22;71.07;101735.84;5055116;28;2796;-47
2020/12/15 10:42:38;;;;;;;;;;;;;;;17.66;70.67;101732.03;5046023;28;2037;-47
2020/12/15 10:45:03;;;;;;;;;;;;;;;17.80;70.35;101727.56;5050103;28;1716;-47
2020/12/15 10:47:30;;;;;;;;;;;;;;;18.16;70.21;101732.25;5052114;28;1676;-44
2020/12/15 10:49:55;;;;;;;;;;;;;;;18.49;68.79;101715.63;5051170;28;1314;-45
2020/12/15 10:52:21;;;;;;;;;;;;;;;18.58;69.83;101714.16;5051692;28;1988;-44
2020/12/15 10:54:46;;;;;;;;;;;;;;;18.56;69.84;101723.22;5050966;28;1860;-43
2020/12/15 10:57:11;;;;;;;;;;;;;;;18.73;69.58;101711.31;5048834;28;1846;-44
2020/12/15 10:59:36;;;;;;;;;;;;;;;18.86;69.33;101707.69;5050465;28;1843;-46
2020/12/15 11:02:02;;;;;;;;;;;;;;;19.26;67.68;101706.56;5049151;28;1844;-47
2020/12/15 11:04:27;;;;;;;;;;;;;;;19.37;67.50;101703.94;5049880;28;1820;-45
2020/12/15 11:06:52;;;;;;;;;;;;;;;19.35;67.45;101710.38;4687148;28;9999976;-46
2020/12/15 11:09:17;;;;;;;;;;;;;;;19.25;67.96;101711.06;5039318;28;1686;-46
2020/12/15 11:11:46;;;;;;;;;;;;;;;19.19;66.04;101699.94;5044493;28;1914;-45
2020/12/15 11:14:12;;;;;;;;;;;;;;;19.11;64.05;101686.25;5050795;28;1326;-46
2020/12/15 11:16:38;;;;;;;;;;;;;;;19.16;65.37;101700.16;5050763;28;1575;-46
2020/12/15 11:19:04;;;;;;;;;;;;;;;19.25;66.40;101707.53;5050703;28;1528;-46
2020/12/15 11:21:29;;;;;;;;;;;;;;;19.24;66.34;101687.91;5049424;28;1424;-45
2020/12/15 11:23:54;;;;;;;;;;;;;;;19.16;67.16;101721.59;5051865;28;1385;-45
2020/12/15 11:26:20;;;;;;;;;;;;;;;19.03;67.40;101706.44;5051280;28;1374;-45
2020/12/15 11:28:45;;;;;;;;;;;;;;;19.08;67.41;101706.13;5050617;28;1360;-45
2020/12/15 11:31:12;;;;;;;;;;;;;;;19.05;67.86;101699.13;5051098;28;2018;-45
2020/12/15 11:33:37;;;;;;;;;;;;;;;19.03;67.95;101695.72;5049809;28;2054;-46
2020/12/15 11:36:03;;;;;;;;;;;;;;;19.17;67.29;101705.41;5051644;28;1331;-45
2020/12/15 11:38:28;;;;;;;;;;;;;;;19.16;66.73;101689.44;5050066;28;1634;-45
2020/12/15 11:40:53;;;;;;;;;;;;;;;19.16;67.35;101694.78;5051855;28;1592;-46
2020/12/15 11:43:18;;;;;;;;;;;;;;;19.13;67.36;101695.88;4342320;28;10000458;-47
2020/12/15 11:45:44;;;;;;;;;;;;;;;19.03;67.61;101697.53;5040307;28;1677;-44
2020/12/15 11:48:09;;;;;;;;;;;;;;;18.98;67.74;101691.66;5036987;28;1361;-48
2020/12/15 11:50:34;;;;;;;;;;;;;;;18.99;67.75;101704.94;5047139;28;1843;-46
2020/12/15 11:52:59;;;;;;;;;;;;;;;18.78;68.29;101687.72;5057175;28;1890;-46
2020/12/15 11:55:25;;;;;;;;;;;;;;;18.60;68.81;101709.53;5052751;28;1482;-46
2020/12/15 11:57:51;;;;;;;;;;;;;;;18.53;69.40;101716.28;5059586;28;1752;-47
2020/12/15 12:00:17;;;;;;;;;;;;;;;18.41;69.31;101704.63;5062559;28;1270;-46
2020/12/15 12:02:42;;;;;;;;;;;;;;;18.34;68.99;101702.47;5056447;28;2259;-46
2020/12/15 12:05:07;;;;;;;;;;;;;;;18.32;69.24;101709.75;5054264;28;1522;-46
2020/12/15 12:07:32;;;;;;;;;;;;;;;18.23;69.79;101704.09;5055960;28;1568;-46
2020/12/15 12:09:58;;;;;;;;;;;;;;;18.19;69.61;101699.94;5060565;28;937;-46
2020/12/15 12:12:23;;;;;;;;;;;;;;;18.17;69.40;101711.72;5058590;28;1996;-46
2020/12/15 12:14:48;;;;;;;;;;;;;;;18.10;69.80;101711.25;5058350;28;1561;-46
2020/12/15 12:17:13;;;;;;;;;;;;;;;17.99;70.09;101714.69;5049135;28;1372;-46
2020/12/15 12:19:38;;;;;;;;;;;;;;;17.99;70.80;101719.19;5046804;28;1757;-46
2020/12/15 12:22:04;;;;;;;;;;;;;;;18.01;70.38;101722.63;5044680;28;1807;-47
2020/12/15 12:24:29;;;;;;;;;;;;;;;18.07;70.81;101724.88;5046693;28;1523;-46
2020/12/15 12:26:56;;;;;;;;;;;;;;;18.06;70.75;101720.47;5045872;28;1880;-46
2020/12/15 12:29:21;;;;;;;;;;;;;;;18.12;69.90;101714.69;5046969;28;1934;-48
2020/12/15 12:31:48;;;;;;;;;;;;;;;18.10;69.96;101727.31;5046732;28;1949;-46
2020/12/15 12:34:13;;;;;;;;;;;;;;;18.14;69.73;101717.25;5047205;28;1690;-46
2020/12/15 12:36:39;;;;;;;;;;;;;;;18.10;70.15;101732.69;5046103;28;1502;-47
2020/12/15 12:39:05;;;;;;;;;;;;;;;18.06;70.24;101726.69;5043912;28;2259;-48
2020/12/15 12:41:30;;;;;;;;;;;;;;;18.06;69.43;101725.81;5047786;28;1286;-46
2020/12/15 12:43:55;;;;;;;;;;;;;;;18.05;70.59;101726.81;5050223;28;2492;-47
2020/12/15 12:46:20;;;;;;;;;;;;;;;18.10;70.02;101724.66;5043945;28;1542;-47
2020/12/15 12:48:45;;;;;;;;;;;;;;;18.11;69.40;101718.34;5046456;28;1514;-48
2020/12/15 12:51:11;;;;;;;;;;;;;;;18.14;70.00;101731.50;5046529;28;1940;-47
2020/12/15 12:53:41;;;;;;;;;;;;;;;18.22;68.97;101718.47;5045886;28;1526;-46
2020/12/15 12:56:06;;;;;;;;;;;;;;;18.22;69.41;101705.06;5047949;28;1391;-47
2020/12/15 12:58:31;;;;;;;;;;;;;;;18.32;68.94;101718.66;5046693;28;1731;-47
2020/12/15 13:00:57;;;;;;;;;;;;;;;18.37;68.89;101729.91;5046677;28;1614;-46
2020/12/15 13:03:22;;;;;;;;;;;;;;;18.45;68.95;101715.97;5046403;28;1550;-47
2020/12/15 13:05:47;;;;;;;;;;;;;;;18.51;68.80;101715.53;5044678;28;1428;-46
2020/12/15 13:08:13;;;;;;;;;;;;;;;18.54;68.63;101714.44;5046337;28;2239;-47
2020/12/15 13:10:38;;;;;;;;;;;;;;;18.58;68.21;101708.78;5046141;28;1875;-46
2020/12/15 13:13:03;;;;;;;;;;;;;;;18.64;68.66;101719.06;5043848;28;1941;-47
2020/12/15 13:15:28;;;;;;;;;;;;;;;18.63;68.89;101717.34;5045729;28;1584;-47
2020/12/15 13:17:54;;;;;;;;;;;;;;;18.86;69.07;101725.56;5044181;28;1579;-44
2020/12/15 13:20:19;;;;;;;;;;;;;;;18.76;68.58;101729.84;5046772;28;1553;-45
2020/12/15 13:22:45;;;;;;;;;;;;;;;18.72;68.99;101725.69;5047185;28;1513;-45
2020/12/15 13:25:11;;;;;;;;;;;;;;;18.65;68.75;101718.09;5043837;28;1592;-44
2020/12/15 13:27:40;;;;;;;;;;;;;;;18.69;68.90;101708.00;5046048;28;1565;-44
2020/12/15 13:30:05;;;;;;;;;;;;;;;18.52;68.94;101706.53;5047373;28;1574;-44
2020/12/15 13:32:31;;;;;;;;;;;;;;;18.50;68.99;101708.44;5044655;28;1947;-44
2020/12/15 13:34:56;;;;;;;;;;;;;;;18.60;69.23;101714.00;5044395;28;1747;-45
2020/12/15 13:37:21;;;;;;;;;;;;;;;18.62;69.72;101718.31;5043969;28;1835;-46
2020/12/15 13:39:46;;;;;;;;;;;;;;;18.61;68.73;101721.94;5048367;28;1613;-45
2020/12/15 13:42:12;;;;;;;;;;;;;;;18.51;69.65;101720.03;5045689;28;2391;-45
2020/12/15 13:44:37;;;;;;;;;;;;;;;18.49;69.82;101722.81;5039905;28;1826;-44
2020/12/15 13:47:04;;;;;;;;;;;;;;;18.56;69.21;101728.59;5033576;28;1506;-45
2020/12/15 13:49:30;;;;;;;;;;;;;;;18.52;69.33;101738.66;5032671;28;1446;-45